Terminal Aerodrome Forecast
Issued by NWS

Home | Current Version | Previous Version | Text Only | Print | Product List | Glossary On
Versions: 1 2 3 4 5 6 7 8 9 10 11 12 13 14 15 16 17 18 19 20 21 22 23 24 25 26
970
FTAK31 PAFA 301720
TAFABT
TAF
PABT 301720Z 3018/0118 05005KT P6SM SCT070 SCT120
     FM302300 07008KT P6SM VCSH SCT070 BKN100
     FM010600 07005KT P6SM FEW070 SCT100 BKN250=

USA.gov is the U.S. government's official web portal to all federal, state and local government web resources and services.